sensor_id;sensor_type;location;lat;lon;timestamp;temperature;humidity
57843;DHT22;43673;51.058;3.734;2023-10-19T00:01:10;16.90;99.90
57843;DHT22;43673;51.058;3.734;2023-10-19T00:03:37;17.00;99.90
57843;DHT22;43673;51.058;3.734;2023-10-19T00:06:03;17.00;99.90
57843;DHT22;43673;51.058;3.734;2023-10-19T00:08:30;17.00;99.90
57843;DHT22;43673;51.058;3.734;2023-10-19T00:11:07;16.90;99.90
57843;DHT22;43673;51.058;3.734;2023-10-19T00:13:46;16.90;99.90
57843;DHT22;43673;51.058;3.734;2023-10-19T00:16:15;16.90;99.90
57843;DHT22;43673;51.058;3.734;2023-10-19T00:18:47;16.90;99.90
57843;DHT22;43673;51.058;3.734;2023-10-19T00:21:14;16.90;99.90
57843;DHT22;43673;51.058;3.734;2023-10-19T00:23:53;16.80;99.90
57843;DHT22;43673;51.058;3.734;2023-10-19T00:26:22;16.80;99.90
57843;DHT22;43673;51.058;3.734;2023-10-19T00:28:51;16.90;99.90
57843;DHT22;43673;51.058;3.734;2023-10-19T00:31:27;16.90;99.90
57843;DHT22;43673;51.058;3.734;2023-10-19T00:33:53;17.00;99.90
57843;DHT22;43673;51.058;3.734;2023-10-19T00:36:23;17.00;99.90
57843;DHT22;43673;51.058;3.734;2023-10-19T00:38:49;16.90;99.90
57843;DHT22;43673;51.058;3.734;2023-10-19T00:41:17;16.90;99.90
57843;DHT22;43673;51.058;3.734;2023-10-19T00:43:55;16.90;99.90
57843;DHT22;43673;51.058;3.734;2023-10-19T00:46:37;16.90;99.90
57843;DHT22;43673;51.058;3.734;2023-10-19T00:49:10;16.90;99.90
57843;DHT22;43673;51.058;3.734;2023-10-19T00:51:43;16.90;99.90
57843;DHT22;43673;51.058;3.734;2023-10-19T00:54:26;16.90;99.90
57843;DHT22;43673;51.058;3.734;2023-10-19T00:57:00;16.90;99.90
57843;DHT22;43673;51.058;3.734;2023-10-19T00:59:41;16.70;99.90
57843;DHT22;43673;51.058;3.734;2023-10-19T01:02:20;16.80;99.90
57843;DHT22;43673;51.058;3.734;2023-10-19T01:04:56;16.80;99.90
57843;DHT22;43673;51.058;3.734;2023-10-19T01:07:27;16.80;99.90
57843;DHT22;43673;51.058;3.734;2023-10-19T01:09:55;16.70;99.90
57843;DHT22;43673;51.058;3.734;2023-10-19T01:12:23;16.80;99.90
57843;DHT22;43673;51.058;3.734;2023-10-19T01:15:12;16.70;99.90
57843;DHT22;43673;51.058;3.734;2023-10-19T01:17:43;16.70;99.90
57843;DHT22;43673;51.058;3.734;2023-10-19T01:20:14;16.80;99.90
57843;DHT22;43673;51.058;3.734;2023-10-19T01:25:15;16.80;99.90
57843;DHT22;43673;51.058;3.734;2023-10-19T01:27:50;16.80;99.90
57843;DHT22;43673;51.058;3.734;2023-10-19T01:30:21;16.80;99.90
57843;DHT22;43673;51.058;3.734;2023-10-19T01:32:47;16.80;99.90
57843;DHT22;43673;51.058;3.734;2023-10-19T01:35:12;16.80;99.90
57843;DHT22;43673;51.058;3.734;2023-10-19T01:37:38;16.70;99.90
57843;DHT22;43673;51.058;3.734;2023-10-19T01:40:04;16.70;99.90
57843;DHT22;43673;51.058;3.734;2023-10-19T01:42:30;16.70;99.90
57843;DHT22;43673;51.058;3.734;2023-10-19T01:44:56;16.70;99.90
57843;DHT22;43673;51.058;3.734;2023-10-19T01:47:22;16.70;99.90
57843;DHT22;43673;51.058;3.734;2023-10-19T01:49:48;16.80;99.90
57843;DHT22;43673;51.058;3.734;2023-10-19T01:52:18;16.80;99.90
57843;DHT22;43673;51.058;3.734;2023-10-19T01:54:43;16.80;99.90
57843;DHT22;43673;51.058;3.734;2023-10-19T01:57:09;16.80;99.90
57843;DHT22;43673;51.058;3.734;2023-10-19T01:59:35;16.80;99.90
57843;DHT22;43673;51.058;3.734;2023-10-19T02:02:01;16.80;99.90
57843;DHT22;43673;51.058;3.734;2023-10-19T02:04:28;16.70;99.90
57843;DHT22;43673;51.058;3.734;2023-10-19T02:06:53;16.70;99.90
57843;DHT22;43673;51.058;3.734;2023-10-19T02:09:20;16.60;99.90
57843;DHT22;43673;51.058;3.734;2023-10-19T02:11:58;16.50;99.90
57843;DHT22;43673;51.058;3.734;2023-10-19T02:14:26;16.30;99.90
57843;DHT22;43673;51.058;3.734;2023-10-19T02:16:56;16.40;99.90
57843;DHT22;43673;51.058;3.734;2023-10-19T02:19:23;16.40;99.90
57843;DHT22;43673;51.058;3.734;2023-10-19T02:21:51;16.40;99.90
57843;DHT22;43673;51.058;3.734;2023-10-19T02:24:18;16.30;99.90
57843;DHT22;43673;51.058;3.734;2023-10-19T02:26:45;16.40;99.90
57843;DHT22;43673;51.058;3.734;2023-10-19T02:29:12;16.40;99.90
57843;DHT22;43673;51.058;3.734;2023-10-19T02:31:42;16.40;99.90
57843;DHT22;43673;51.058;3.734;2023-10-19T02:34:09;16.40;99.90
57843;DHT22;43673;51.058;3.734;2023-10-19T02:36:38;16.40;99.90
57843;DHT22;43673;51.058;3.734;2023-10-19T02:39:14;16.50;99.90
57843;DHT22;43673;51.058;3.734;2023-10-19T02:41:42;16.50;99.90
57843;DHT22;43673;51.058;3.734;2023-10-19T02:44:12;16.50;99.90
57843;DHT22;43673;51.058;3.734;2023-10-19T02:46:47;16.50;99.90
57843;DHT22;43673;51.058;3.734;2023-10-19T02:49:19;16.60;99.90
57843;DHT22;43673;51.058;3.734;2023-10-19T02:51:49;16.60;99.90
57843;DHT22;43673;51.058;3.734;2023-10-19T02:54:16;16.60;99.90
57843;DHT22;43673;51.058;3.734;2023-10-19T02:56:48;16.60;99.90
57843;DHT22;43673;51.058;3.734;2023-10-19T02:59:16;16.60;99.90
57843;DHT22;43673;51.058;3.734;2023-10-19T03:01:42;16.60;99.90
57843;DHT22;43673;51.058;3.734;2023-10-19T03:04:11;16.60;99.90
57843;DHT22;43673;51.058;3.734;2023-10-19T03:06:38;16.60;99.90
57843;DHT22;43673;51.058;3.734;2023-10-19T03:09:07;16.60;99.90
57843;DHT22;43673;51.058;3.734;2023-10-19T03:11:40;16.60;99.90
57843;DHT22;43673;51.058;3.734;2023-10-19T03:14:09;16.60;99.90
57843;DHT22;43673;51.058;3.734;2023-10-19T03:16:38;16.60;99.90
57843;DHT22;43673;51.058;3.734;2023-10-19T03:19:07;16.60;99.90
57843;DHT22;43673;51.058;3.734;2023-10-19T03:21:34;16.60;99.90
57843;DHT22;43673;51.058;3.734;2023-10-19T03:24:08;16.60;99.90
57843;DHT22;43673;51.058;3.734;2023-10-19T03:26:51;16.60;99.90
57843;DHT22;43673;51.058;3.734;2023-10-19T03:29:19;16.70;99.90
57843;DHT22;43673;51.058;3.734;2023-10-19T03:31:53;16.50;99.90
57843;DHT22;43673;51.058;3.734;2023-10-19T03:34:19;16.60;99.90
57843;DHT22;43673;51.058;3.734;2023-10-19T03:36:49;16.60;99.90
57843;DHT22;43673;51.058;3.734;2023-10-19T03:39:16;16.60;99.90
57843;DHT22;43673;51.058;3.734;2023-10-19T03:41:43;16.60;99.90
57843;DHT22;43673;51.058;3.734;2023-10-19T03:44:13;16.70;99.90
57843;DHT22;43673;51.058;3.734;2023-10-19T03:46:50;16.70;99.90
57843;DHT22;43673;51.058;3.734;2023-10-19T03:49:22;16.70;99.90
57843;DHT22;43673;51.058;3.734;2023-10-19T03:51:48;16.60;99.90
57843;DHT22;43673;51.058;3.734;2023-10-19T03:54:34;16.70;99.90
57843;DHT22;43673;51.058;3.734;2023-10-19T03:57:04;16.70;99.90
57843;DHT22;43673;51.058;3.734;2023-10-19T03:59:32;16.80;99.90
57843;DHT22;43673;51.058;3.734;2023-10-19T04:02:00;16.80;99.90
57843;DHT22;43673;51.058;3.734;2023-10-19T04:04:26;16.80;99.90
57843;DHT22;43673;51.058;3.734;2023-10-19T04:06:55;16.70;99.90
57843;DHT22;43673;51.058;3.734;2023-10-19T04:09:24;16.80;99.90
57843;DHT22;43673;51.058;3.734;2023-10-19T04:11:55;16.80;99.90
57843;DHT22;43673;51.058;3.734;2023-10-19T04:14:21;16.80;99.90
57843;DHT22;43673;51.058;3.734;2023-10-19T04:16:47;16.90;99.90
57843;DHT22;43673;51.058;3.734;2023-10-19T04:19:14;16.80;99.90
57843;DHT22;43673;51.058;3.734;2023-10-19T04:21:41;16.80;99.90
57843;DHT22;43673;51.058;3.734;2023-10-19T04:24:12;16.90;99.90
57843;DHT22;43673;51.058;3.734;2023-10-19T04:26:38;16.90;99.90
57843;DHT22;43673;51.058;3.734;2023-10-19T04:29:05;16.80;99.90
57843;DHT22;43673;51.058;3.734;2023-10-19T04:31:38;16.80;99.90
57843;DHT22;43673;51.058;3.734;2023-10-19T04:34:15;16.80;99.90
57843;DHT22;43673;51.058;3.734;2023-10-19T04:36:42;16.80;99.90
57843;DHT22;43673;51.058;3.734;2023-10-19T04:39:08;16.80;99.90
57843;DHT22;43673;51.058;3.734;2023-10-19T04:41:40;16.80;99.90
57843;DHT22;43673;51.058;3.734;2023-10-19T04:44:06;16.80;99.90
57843;DHT22;43673;51.058;3.734;2023-10-19T04:46:34;16.70;99.90
57843;DHT22;43673;51.058;3.734;2023-10-19T04:48:59;16.70;99.90
57843;DHT22;43673;51.058;3.734;2023-10-19T04:51:25;16.70;99.90
57843;DHT22;43673;51.058;3.734;2023-10-19T04:53:51;16.70;99.90
57843;DHT22;43673;51.058;3.734;2023-10-19T04:56:17;16.70;99.90
57843;DHT22;43673;51.058;3.734;2023-10-19T04:58:42;16.60;99.90
57843;DHT22;43673;51.058;3.734;2023-10-19T05:01:08;16.70;99.90
57843;DHT22;43673;51.058;3.734;2023-10-19T05:03:37;16.80;99.90
57843;DHT22;43673;51.058;3.734;2023-10-19T05:06:03;16.80;99.90
57843;DHT22;43673;51.058;3.734;2023-10-19T05:08:29;16.80;99.90
57843;DHT22;43673;51.058;3.734;2023-10-19T05:10:55;16.70;99.90
57843;DHT22;43673;51.058;3.734;2023-10-19T05:13:25;16.80;99.90
57843;DHT22;43673;51.058;3.734;2023-10-19T05:15:52;16.90;99.90
57843;DHT22;43673;51.058;3.734;2023-10-19T05:18:19;16.90;99.90
57843;DHT22;43673;51.058;3.734;2023-10-19T05:20:46;16.80;99.90
57843;DHT22;43673;51.058;3.734;2023-10-19T05:23:12;16.80;99.90
57843;DHT22;43673;51.058;3.734;2023-10-19T05:25:40;16.80;99.90
57843;DHT22;43673;51.058;3.734;2023-10-19T05:28:06;16.90;99.90
57843;DHT22;43673;51.058;3.734;2023-10-19T05:30:34;16.90;99.90
57843;DHT22;43673;51.058;3.734;2023-10-19T05:33:01;16.90;99.90
57843;DHT22;43673;51.058;3.734;2023-10-19T05:35:31;16.90;99.90
57843;DHT22;43673;51.058;3.734;2023-10-19T05:38:00;16.90;99.90
57843;DHT22;43673;51.058;3.734;2023-10-19T05:40:27;16.80;99.90
57843;DHT22;43673;51.058;3.734;2023-10-19T05:42:58;16.90;99.90
57843;DHT22;43673;51.058;3.734;2023-10-19T05:45:25;16.90;99.90
57843;DHT22;43673;51.058;3.734;2023-10-19T05:47:53;16.90;99.90
57843;DHT22;43673;51.058;3.734;2023-10-19T05:50:19;16.90;99.90
57843;DHT22;43673;51.058;3.734;2023-10-19T05:52:45;16.90;99.90
57843;DHT22;43673;51.058;3.734;2023-10-19T05:55:11;16.90;99.90
57843;DHT22;43673;51.058;3.734;2023-10-19T05:57:37;16.80;99.90
57843;DHT22;43673;51.058;3.734;2023-10-19T06:00:10;16.80;99.90
57843;DHT22;43673;51.058;3.734;2023-10-19T06:02:48;16.80;99.90
57843;DHT22;43673;51.058;3.734;2023-10-19T06:05:18;16.70;99.90
57843;DHT22;43673;51.058;3.734;2023-10-19T06:07:45;16.70;99.90
57843;DHT22;43673;51.058;3.734;2023-10-19T06:10:13;16.70;99.90
57843;DHT22;43673;51.058;3.734;2023-10-19T06:12:50;16.70;99.90
57843;DHT22;43673;51.058;3.734;2023-10-19T06:15:17;16.70;99.90
57843;DHT22;43673;51.058;3.734;2023-10-19T06:17:43;16.70;99.90
57843;DHT22;43673;51.058;3.734;2023-10-19T06:20:11;16.60;99.90
57843;DHT22;43673;51.058;3.734;2023-10-19T06:22:58;16.60;99.90
57843;DHT22;43673;51.058;3.734;2023-10-19T06:25:30;16.60;99.90
57843;DHT22;43673;51.058;3.734;2023-10-19T06:27:56;16.60;99.90
57843;DHT22;43673;51.058;3.734;2023-10-19T06:30:23;16.60;99.90
57843;DHT22;43673;51.058;3.734;2023-10-19T06:32:51;16.50;99.90
57843;DHT22;43673;51.058;3.734;2023-10-19T06:35:20;16.50;99.90
57843;DHT22;43673;51.058;3.734;2023-10-19T06:37:46;16.50;99.90
57843;DHT22;43673;51.058;3.734;2023-10-19T06:40:13;16.40;99.90
57843;DHT22;43673;51.058;3.734;2023-10-19T06:42:46;16.40;99.90
57843;DHT22;43673;51.058;3.734;2023-10-19T06:45:13;16.40;99.90
57843;DHT22;43673;51.058;3.734;2023-10-19T06:47:49;16.50;99.90
57843;DHT22;43673;51.058;3.734;2023-10-19T06:50:19;16.50;99.90
57843;DHT22;43673;51.058;3.734;2023-10-19T06:52:46;16.60;99.90
57843;DHT22;43673;51.058;3.734;2023-10-19T06:55:14;16.60;99.90
57843;DHT22;43673;51.058;3.734;2023-10-19T06:57:43;16.60;99.90
57843;DHT22;43673;51.058;3.734;2023-10-19T07:00:12;16.60;99.90
57843;DHT22;43673;51.058;3.734;2023-10-19T07:02:42;16.70;99.90
57843;DHT22;43673;51.058;3.734;2023-10-19T07:05:09;16.90;99.90
57843;DHT22;43673;51.058;3.734;2023-10-19T07:07:42;17.00;99.90
57843;DHT22;43673;51.058;3.734;2023-10-19T07:10:09;17.00;99.90
57843;DHT22;43673;51.058;3.734;2023-10-19T07:12:39;17.00;99.90
57843;DHT22;43673;51.058;3.734;2023-10-19T07:15:06;17.10;99.90
57843;DHT22;43673;51.058;3.734;2023-10-19T07:17:36;17.10;99.90
57843;DHT22;43673;51.058;3.734;2023-10-19T07:22:48;17.10;99.90
57843;DHT22;43673;51.058;3.734;2023-10-19T07:25:14;16.90;99.90
57843;DHT22;43673;51.058;3.734;2023-10-19T07:27:40;17.10;99.90
57843;DHT22;43673;51.058;3.734;2023-10-19T07:30:08;17.20;99.90
57843;DHT22;43673;51.058;3.734;2023-10-19T07:32:35;17.20;99.90
57843;DHT22;43673;51.058;3.734;2023-10-19T07:35:01;17.10;99.90
57843;DHT22;43673;51.058;3.734;2023-10-19T07:37:27;17.10;99.90
57843;DHT22;43673;51.058;3.734;2023-10-19T07:39:54;17.10;99.90
57843;DHT22;43673;51.058;3.734;2023-10-19T07:42:23;17.10;99.90
57843;DHT22;43673;51.058;3.734;2023-10-19T07:44:49;17.20;99.90
57843;DHT22;43673;51.058;3.734;2023-10-19T07:47:15;17.30;99.90
57843;DHT22;43673;51.058;3.734;2023-10-19T07:49:40;17.30;99.90
57843;DHT22;43673;51.058;3.734;2023-10-19T07:52:07;17.10;99.90
57843;DHT22;43673;51.058;3.734;2023-10-19T07:54:37;17.20;99.90
57843;DHT22;43673;51.058;3.734;2023-10-19T07:57:03;17.10;99.90
57843;DHT22;43673;51.058;3.734;2023-10-19T07:59:35;17.10;99.90
57843;DHT22;43673;51.058;3.734;2023-10-19T08:02:01;17.10;99.90
57843;DHT22;43673;51.058;3.734;2023-10-19T08:04:31;17.10;99.90
57843;DHT22;43673;51.058;3.734;2023-10-19T08:07:00;17.20;99.90
57843;DHT22;43673;51.058;3.734;2023-10-19T08:09:25;17.30;99.90
57843;DHT22;43673;51.058;3.734;2023-10-19T08:11:57;17.40;99.90
57843;DHT22;43673;51.058;3.734;2023-10-19T08:14:27;17.80;99.90
57843;DHT22;43673;51.058;3.734;2023-10-19T08:16:53;18.30;99.90
57843;DHT22;43673;51.058;3.734;2023-10-19T08:19:19;19.00;99.90
57843;DHT22;43673;51.058;3.734;2023-10-19T08:21:46;20.10;99.90
57843;DHT22;43673;51.058;3.734;2023-10-19T08:24:12;20.90;99.90
57843;DHT22;43673;51.058;3.734;2023-10-19T08:26:46;21.50;99.90
57843;DHT22;43673;51.058;3.734;2023-10-19T08:29:12;22.30;99.90
57843;DHT22;43673;51.058;3.734;2023-10-19T08:31:42;22.90;99.90
57843;DHT22;43673;51.058;3.734;2023-10-19T08:34:08;23.30;99.90
57843;DHT22;43673;51.058;3.734;2023-10-19T08:36:40;23.10;99.90
57843;DHT22;43673;51.058;3.734;2023-10-19T08:39:07;21.90;99.90
57843;DHT22;43673;51.058;3.734;2023-10-19T08:41:34;21.40;99.90
57843;DHT22;43673;51.058;3.734;2023-10-19T08:44:05;21.10;99.90
57843;DHT22;43673;51.058;3.734;2023-10-19T08:46:44;20.80;99.90
57843;DHT22;43673;51.058;3.734;2023-10-19T08:49:14;20.40;99.90
57843;DHT22;43673;51.058;3.734;2023-10-19T08:51:45;20.10;99.90
57843;DHT22;43673;51.058;3.734;2023-10-19T08:54:13;20.10;99.90
57843;DHT22;43673;51.058;3.734;2023-10-19T08:56:41;20.00;99.90
57843;DHT22;43673;51.058;3.734;2023-10-19T08:59:11;20.20;99.90
57843;DHT22;43673;51.058;3.734;2023-10-19T09:01:37;20.10;99.90
57843;DHT22;43673;51.058;3.734;2023-10-19T09:04:04;20.10;99.90
57843;DHT22;43673;51.058;3.734;2023-10-19T09:06:39;19.90;99.90
57843;DHT22;43673;51.058;3.734;2023-10-19T09:09:10;19.90;99.90
57843;DHT22;43673;51.058;3.734;2023-10-19T09:11:51;20.00;99.90
57843;DHT22;43673;51.058;3.734;2023-10-19T09:14:35;19.80;99.90
57843;DHT22;43673;51.058;3.734;2023-10-19T09:17:02;19.70;99.90
57843;DHT22;43673;51.058;3.734;2023-10-19T09:19:43;19.70;99.90
57843;DHT22;43673;51.058;3.734;2023-10-19T09:22:10;19.60;99.90
57843;DHT22;43673;51.058;3.734;2023-10-19T09:24:54;19.50;99.90
57843;DHT22;43673;51.058;3.734;2023-10-19T09:27:21;19.60;99.90
57843;DHT22;43673;51.058;3.734;2023-10-19T09:29:50;19.60;99.90
57843;DHT22;43673;51.058;3.734;2023-10-19T09:32:18;19.70;99.90
57843;DHT22;43673;51.058;3.734;2023-10-19T09:34:45;19.70;99.90
57843;DHT22;43673;51.058;3.734;2023-10-19T09:37:14;19.60;99.90
57843;DHT22;43673;51.058;3.734;2023-10-19T09:39:41;19.70;99.90
57843;DHT22;43673;51.058;3.734;2023-10-19T09:42:10;19.70;99.90
57843;DHT22;43673;51.058;3.734;2023-10-19T09:44:41;19.70;99.90
57843;DHT22;43673;51.058;3.734;2023-10-19T09:47:12;19.70;99.90
57843;DHT22;43673;51.058;3.734;2023-10-19T09:49:41;19.60;99.90
57843;DHT22;43673;51.058;3.734;2023-10-19T09:52:11;19.40;99.90
57843;DHT22;43673;51.058;3.734;2023-10-19T09:54:50;19.30;99.90
57843;DHT22;43673;51.058;3.734;2023-10-19T09:57:25;19.40;99.90
57843;DHT22;43673;51.058;3.734;2023-10-19T09:59:58;19.60;99.90
57843;DHT22;43673;51.058;3.734;2023-10-19T10:02:32;19.60;99.90
57843;DHT22;43673;51.058;3.734;2023-10-19T10:04:58;19.70;99.90
57843;DHT22;43673;51.058;3.734;2023-10-19T10:07:25;19.50;99.90
57843;DHT22;43673;51.058;3.734;2023-10-19T10:09:51;19.70;99.90
57843;DHT22;43673;51.058;3.734;2023-10-19T10:14:59;19.60;99.90
57843;DHT22;43673;51.058;3.734;2023-10-19T10:17:27;19.40;99.90
57843;DHT22;43673;51.058;3.734;2023-10-19T10:22:40;19.30;99.90
57843;DHT22;43673;51.058;3.734;2023-10-19T10:25:26;19.20;99.90
57843;DHT22;43673;51.058;3.734;2023-10-19T10:27:56;19.10;99.90
57843;DHT22;43673;51.058;3.734;2023-10-19T10:30:22;19.00;99.90
57843;DHT22;43673;51.058;3.734;2023-10-19T10:32:52;18.90;99.90
57843;DHT22;43673;51.058;3.734;2023-10-19T10:38:09;18.50;99.90
57843;DHT22;43673;51.058;3.734;2023-10-19T10:40:47;18.30;99.90
57843;DHT22;43673;51.058;3.734;2023-10-19T10:43:21;18.10;99.90
57843;DHT22;43673;51.058;3.734;2023-10-19T10:45:48;17.90;99.90
57843;DHT22;43673;51.058;3.734;2023-10-19T10:48:19;17.70;99.90
57843;DHT22;43673;51.058;3.734;2023-10-19T10:50:46;17.50;99.90
57843;DHT22;43673;51.058;3.734;2023-10-19T10:53:15;17.30;99.90
57843;DHT22;43673;51.058;3.734;2023-10-19T10:55:41;17.20;99.90
57843;DHT22;43673;51.058;3.734;2023-10-19T10:58:07;17.10;99.90
57843;DHT22;43673;51.058;3.734;2023-10-19T11:00:34;17.20;99.90
57843;DHT22;43673;51.058;3.734;2023-10-19T11:03:07;17.10;99.90
57843;DHT22;43673;51.058;3.734;2023-10-19T11:05:35;17.10;99.90
57843;DHT22;43673;51.058;3.734;2023-10-19T11:10:31;17.20;99.90
57843;DHT22;43673;51.058;3.734;2023-10-19T11:13:07;17.20;99.90
57843;DHT22;43673;51.058;3.734;2023-10-19T11:15:34;17.60;99.90
57843;DHT22;43673;51.058;3.734;2023-10-19T11:18:00;18.10;99.90
57843;DHT22;43673;51.058;3.734;2023-10-19T11:20:27;18.60;99.90
57843;DHT22;43673;51.058;3.734;2023-10-19T11:22:54;18.70;99.90
57843;DHT22;43673;51.058;3.734;2023-10-19T11:25:29;18.70;99.90
57843;DHT22;43673;51.058;3.734;2023-10-19T11:27:59;18.90;99.90
57843;DHT22;43673;51.058;3.734;2023-10-19T11:30:29;19.00;99.90
57843;DHT22;43673;51.058;3.734;2023-10-19T11:32:57;18.90;99.90
57843;DHT22;43673;51.058;3.734;2023-10-19T11:35:31;18.90;99.90
57843;DHT22;43673;51.058;3.734;2023-10-19T11:37:59;18.80;99.90
57843;DHT22;43673;51.058;3.734;2023-10-19T11:40:26;18.80;99.90
57843;DHT22;43673;51.058;3.734;2023-10-19T11:42:53;18.80;99.90
57843;DHT22;43673;51.058;3.734;2023-10-19T11:45:22;18.70;99.90
57843;DHT22;43673;51.058;3.734;2023-10-19T11:47:51;18.70;99.90
57843;DHT22;43673;51.058;3.734;2023-10-19T11:50:17;18.60;99.90
57843;DHT22;43673;51.058;3.734;2023-10-19T11:52:45;18.70;99.90
57843;DHT22;43673;51.058;3.734;2023-10-19T11:55:15;18.80;99.90
57843;DHT22;43673;51.058;3.734;2023-10-19T11:57:42;18.80;99.90
57843;DHT22;43673;51.058;3.734;2023-10-19T12:00:12;18.80;99.90
57843;DHT22;43673;51.058;3.734;2023-10-19T12:02:49;19.00;99.90
57843;DHT22;43673;51.058;3.734;2023-10-19T12:05:15;19.00;99.90
57843;DHT22;43673;51.058;3.734;2023-10-19T12:07:40;19.20;99.90
57843;DHT22;43673;51.058;3.734;2023-10-19T12:10:08;19.50;99.90
57843;DHT22;43673;51.058;3.734;2023-10-19T12:12:34;19.60;99.90
57843;DHT22;43673;51.058;3.734;2023-10-19T12:15:00;19.60;99.90
57843;DHT22;43673;51.058;3.734;2023-10-19T12:17:26;19.50;99.90
57843;DHT22;43673;51.058;3.734;2023-10-19T12:19:53;19.50;99.90
57843;DHT22;43673;51.058;3.734;2023-10-19T12:22:20;19.40;99.90
57843;DHT22;43673;51.058;3.734;2023-10-19T12:24:47;19.40;99.90
57843;DHT22;43673;51.058;3.734;2023-10-19T12:27:14;19.30;99.90
57843;DHT22;43673;51.058;3.734;2023-10-19T12:29:39;19.20;99.90
57843;DHT22;43673;51.058;3.734;2023-10-19T12:32:06;19.20;99.90
57843;DHT22;43673;51.058;3.734;2023-10-19T12:34:32;19.30;99.90
57843;DHT22;43673;51.058;3.734;2023-10-19T12:36:58;19.30;99.90
57843;DHT22;43673;51.058;3.734;2023-10-19T12:39:27;19.30;99.90
57843;DHT22;43673;51.058;3.734;2023-10-19T12:42:08;19.30;99.90
57843;DHT22;43673;51.058;3.734;2023-10-19T12:44:34;19.20;99.90
57843;DHT22;43673;51.058;3.734;2023-10-19T12:47:10;19.30;99.90
57843;DHT22;43673;51.058;3.734;2023-10-19T12:49:42;19.30;99.90
57843;DHT22;43673;51.058;3.734;2023-10-19T12:52:10;19.40;99.90
57843;DHT22;43673;51.058;3.734;2023-10-19T12:54:36;19.60;99.90
57843;DHT22;43673;51.058;3.734;2023-10-19T12:57:04;19.60;99.90
57843;DHT22;43673;51.058;3.734;2023-10-19T12:59:35;19.90;99.90
57843;DHT22;43673;51.058;3.734;2023-10-19T13:02:05;20.00;99.90
57843;DHT22;43673;51.058;3.734;2023-10-19T13:04:34;20.30;99.90
57843;DHT22;43673;51.058;3.734;2023-10-19T13:07:00;20.60;99.90
57843;DHT22;43673;51.058;3.734;2023-10-19T13:09:28;20.80;99.90
57843;DHT22;43673;51.058;3.734;2023-10-19T13:12:05;21.10;99.90
57843;DHT22;43673;51.058;3.734;2023-10-19T13:14:33;21.30;99.90
57843;DHT22;43673;51.058;3.734;2023-10-19T13:16:59;21.30;99.90
57843;DHT22;43673;51.058;3.734;2023-10-19T13:19:25;21.40;99.90
57843;DHT22;43673;51.058;3.734;2023-10-19T13:21:52;21.40;99.90
57843;DHT22;43673;51.058;3.734;2023-10-19T13:24:18;21.30;99.90
57843;DHT22;43673;51.058;3.734;2023-10-19T13:26:49;21.30;99.90
57843;DHT22;43673;51.058;3.734;2023-10-19T13:29:15;21.20;99.90
57843;DHT22;43673;51.058;3.734;2023-10-19T13:31:41;21.30;99.90
57843;DHT22;43673;51.058;3.734;2023-10-19T13:34:09;21.10;99.90
57843;DHT22;43673;51.058;3.734;2023-10-19T13:36:36;20.80;99.90
57843;DHT22;43673;51.058;3.734;2023-10-19T13:39:02;20.80;99.90
57843;DHT22;43673;51.058;3.734;2023-10-19T13:41:29;20.70;99.90
57843;DHT22;43673;51.058;3.734;2023-10-19T13:43:55;20.60;99.90
57843;DHT22;43673;51.058;3.734;2023-10-19T13:46:21;20.50;99.90
57843;DHT22;43673;51.058;3.734;2023-10-19T13:48:49;20.70;99.90
57843;DHT22;43673;51.058;3.734;2023-10-19T13:51:18;20.80;99.90
57843;DHT22;43673;51.058;3.734;2023-10-19T13:53:45;20.70;99.90
57843;DHT22;43673;51.058;3.734;2023-10-19T13:56:11;20.70;99.90
57843;DHT22;43673;51.058;3.734;2023-10-19T13:58:38;20.80;99.90
57843;DHT22;43673;51.058;3.734;2023-10-19T14:01:10;20.90;99.90
57843;DHT22;43673;51.058;3.734;2023-10-19T14:03:37;20.90;99.90
57843;DHT22;43673;51.058;3.734;2023-10-19T14:06:03;20.70;99.90
57843;DHT22;43673;51.058;3.734;2023-10-19T14:08:29;20.50;99.90
57843;DHT22;43673;51.058;3.734;2023-10-19T14:11:05;20.40;99.90
57843;DHT22;43673;51.058;3.734;2023-10-19T14:13:32;20.30;99.90
57843;DHT22;43673;51.058;3.734;2023-10-19T14:15:57;20.40;99.90
57843;DHT22;43673;51.058;3.734;2023-10-19T14:18:23;20.40;99.90
57843;DHT22;43673;51.058;3.734;2023-10-19T14:20:49;20.50;99.90
57843;DHT22;43673;51.058;3.734;2023-10-19T14:23:14;20.50;99.90
57843;DHT22;43673;51.058;3.734;2023-10-19T14:25:40;20.50;99.90
57843;DHT22;43673;51.058;3.734;2023-10-19T14:28:08;20.40;99.90
57843;DHT22;43673;51.058;3.734;2023-10-19T14:30:35;20.30;99.90
57843;DHT22;43673;51.058;3.734;2023-10-19T14:33:01;20.20;99.90
57843;DHT22;43673;51.058;3.734;2023-10-19T14:35:27;20.20;99.90
57843;DHT22;43673;51.058;3.734;2023-10-19T14:37:54;20.20;99.90
57843;DHT22;43673;51.058;3.734;2023-10-19T14:40:22;20.20;99.90
57843;DHT22;43673;51.058;3.734;2023-10-19T14:42:51;20.20;99.90
57843;DHT22;43673;51.058;3.734;2023-10-19T14:45:20;20.10;99.90
57843;DHT22;43673;51.058;3.734;2023-10-19T14:47:48;20.10;99.90
57843;DHT22;43673;51.058;3.734;2023-10-19T14:50:17;20.40;99.90
57843;DHT22;43673;51.058;3.734;2023-10-19T14:52:45;20.30;99.90
57843;DHT22;43673;51.058;3.734;2023-10-19T14:55:12;20.30;99.90
57843;DHT22;43673;51.058;3.734;2023-10-19T14:57:40;20.30;99.90
57843;DHT22;43673;51.058;3.734;2023-10-19T15:00:09;20.40;99.90
57843;DHT22;43673;51.058;3.734;2023-10-19T15:02:48;20.40;99.90
57843;DHT22;43673;51.058;3.734;2023-10-19T15:05:20;20.50;99.90
57843;DHT22;43673;51.058;3.734;2023-10-19T15:07:48;20.40;99.90
57843;DHT22;43673;51.058;3.734;2023-10-19T15:10:27;20.30;99.90
57843;DHT22;43673;51.058;3.734;2023-10-19T15:12:54;20.30;99.90
57843;DHT22;43673;51.058;3.734;2023-10-19T15:15:24;20.30;99.90
57843;DHT22;43673;51.058;3.734;2023-10-19T15:17:52;20.20;99.90
57843;DHT22;43673;51.058;3.734;2023-10-19T15:20:20;20.10;99.90
57843;DHT22;43673;51.058;3.734;2023-10-19T15:22:46;20.10;99.90
57843;DHT22;43673;51.058;3.734;2023-10-19T15:25:13;20.10;99.90
57843;DHT22;43673;51.058;3.734;2023-10-19T15:27:40;20.10;99.90
57843;DHT22;43673;51.058;3.734;2023-10-19T15:30:09;20.10;99.90
57843;DHT22;43673;51.058;3.734;2023-10-19T15:32:39;20.20;99.90
57843;DHT22;43673;51.058;3.734;2023-10-19T15:35:10;20.30;99.90
57843;DHT22;43673;51.058;3.734;2023-10-19T15:37:37;20.30;99.90
57843;DHT22;43673;51.058;3.734;2023-10-19T15:40:07;20.20;99.90
57843;DHT22;43673;51.058;3.734;2023-10-19T15:42:40;20.20;99.90
57843;DHT22;43673;51.058;3.734;2023-10-19T15:45:16;20.10;99.90
57843;DHT22;43673;51.058;3.734;2023-10-19T15:47:46;20.10;99.90
57843;DHT22;43673;51.058;3.734;2023-10-19T15:50:13;20.00;99.90
57843;DHT22;43673;51.058;3.734;2023-10-19T15:52:39;20.00;99.90
57843;DHT22;43673;51.058;3.734;2023-10-19T15:55:09;20.10;99.90
57843;DHT22;43673;51.058;3.734;2023-10-19T15:57:36;20.10;99.90